This is the latest recevied weather packets stored in our database for station/object SP9WPN-12. If no packets are shown the sender has not sent any weather packets the latest 10 day(s).
| Time | Temp. | Humidity | Pressure | Rain* | Wind** | Luminosity | Snow |
|---|---|---|---|---|---|---|---|
| 1777462212 | 12.22° C | 23% | 1027.2 hPa | - | - | - | - |
| 1777461615 | 12.22° C | 23% | 1027.2 hPa | - | - | - | - |
| 1777461017 | 11.67° C | 24% | 1027.3 hPa | - | - | - | - |
| 1777460419 | 11.67° C | 24% | 1027.2 hPa | - | - | - | - |
| 1777459822 | 11.67° C | 26% | 1027.3 hPa | - | - | - | - |
| 1777459223 | 12.22° C | 27% | 1027.3 hPa | - | - | - | - |
| 1777458625 | 10° C | 29% | 1027.6 hPa | - | - | - | - |
| 1777458027 | 8.89° C | 33% | 1027.7 hPa | - | - | - | - |
| 1777457429 | 11.11° C | 32% | 1027.4 hPa | - | - | - | - |
| 1777456831 | 11.11° C | 32% | 1027.4 hPa | - | - | - | - |
| 1777456234 | 9.44° C | 35% | 1027.6 hPa | - | - | - | - |
| 1777455636 | 9.44° C | 37% | 1027.8 hPa | - | - | - | - |
| 1777455038 | 11.11° C | 34% | 1027.5 hPa | - | - | - | - |
| 1777454441 | 10° C | 37% | 1027.6 hPa | - | - | - | - |
| 1777453843 | 11.67° C | 36% | 1027.4 hPa | - | - | - | - |
| 1777453244 | 9.44° C | 39% | 1027.8 hPa | - | - | - | - |
| 1777452647 | 11.67° C | 37% | 1027.6 hPa | - | - | - | - |
| 1777452049 | 10.56° C | 38% | 1027.7 hPa | - | - | - | - |
| 1777451449 | 10° C | 40% | 1027.9 hPa | - | - | - | - |
| 1777450851 | 8.33° C | 42% | 1028.1 hPa | - | - | - | - |
| 1777450253 | 8.89° C | 40% | 1028 hPa | - | - | - | - |
| 1777449655 | 7.78° C | 41% | 1028 hPa | - | - | - | - |
| 1777449057 | 8.89° C | 40% | 1027.8 hPa | - | - | - | - |
| 1777448459 | 7.78° C | 43% | 1027.9 hPa | - | - | - | - |
| 1777447860 | 7.78° C | 44% | 1027.9 hPa | - | - | - | - |
* Rain since midnight (hover to see other rain measurements)
** Current wind speed in m/s (hover to see current wind gust speed)